Flight Track Log - Related Links

Times and Time Zones

All times are in EDT time to prevent confusion due to time zone crossing. See the FLG3776 flight status page for this flight to view local times or setup timezone preferences in your user account.

Time Position Orientation Groundspeed Altitude Reporting Facility
EDT Latitude Longitude Course Direction KTS MPH feet Rate Location/Type
Thu 10:25:49 PM 44.9042 -93.2250 122° Southeast 143 165 2,400  Level FAA TRACON
Thu 10:26:09 PM 44.9164 -93.2225 North 143 165 3,100 2,615 Climbing FAA TRACON
Thu 10:26:28 PM 44.9300 -93.2214 North 154 177 4,100 3,000 Climbing FAA TRACON
Thu 10:26:49 PM 44.9481 -93.2214 360° North 168 193 5,100 2,341 Climbing FAA TRACON
Thu 10:27:09 PM 44.9633 -93.2142 18° North 190 219 5,700 1,950 Climbing FAA TRACON
Thu 10:27:29 PM 44.9722 -93.1919 61° Northeast 210 242 6,400 1,950 Climbing FAA TRACON
Thu 10:27:49 PM 44.9794 -93.1653 69° East 229 264 7,000 2,700 Climbing FAA TRACON
Thu 10:28:00 PM 44.7553 -92.7999 110° East  Level Estimated
Thu 10:28:09 PM 44.9786 -93.1278 92° East 252 290 8,200  Level FAA TRACON
Thu 10:28:29 PM 44.9708 -93.0978 110° East 264 304 8,900 2,100 Climbing FAA TRACON
Thu 10:28:49 PM 44.9583 -93.0686 121° Southeast 275 316 9,600 2,049 Climbing FAA TRACON
Thu 10:29:00 PM 44.7128 -92.6597 118° Southeast  Level Estimated
Thu 10:29:10 PM 44.9417 -93.0314 122° Southeast 291 335 10,300  Level FAA TRACON
Thu 10:29:30 PM 44.9275 -93.0003 123° Southeast 303 349 10,700 1,800 Climbing FAA TRACON
Thu 10:29:50 PM 44.9128 -92.9683 123° Southeast 311 358 11,500 3,150 Climbing FAA TRACON
Thu 10:30:00 PM 44.6549 -92.5310 122° Southeast  Level FlightAware
Thu 10:30:10 PM 44.8961 -92.9283 120° Southeast 310 357 12,800  Level FAA TRACON
Thu 10:30:30 PM 44.8842 -92.8975 119° Southeast 297 342 13,800 2,400 Climbing FAA TRACON
Thu 10:30:50 PM 44.8711 -92.8667 121° Southeast 294 338 14,400 1,650 Climbing FAA TRACON
Thu 10:31:10 PM 44.8553 -92.8269 119° Southeast 301 346 14,900 1,077 Climbing FAA TRACON
Thu 10:31:29 PM 44.8419 -92.7942 120° Southeast 312 359 15,100 462 Climbing FAA TRACON
Thu 10:31:49 PM 44.8278 -92.7589 120° Southeast 330 380 15,200 300 Climbing FAA TRACON
Thu 10:32:09 PM 44.8128 -92.7219 120° Southeast 347 399 15,300 1,024 Climbing FAA TRACON
Thu 10:32:30 PM 44.7939 -92.6753 120° Southeast 358 412 15,900 1,463 Climbing FAA TRACON
Thu 10:32:50 PM 44.7783 -92.6372 120° Southeast 364 419 16,300 2,100 Climbing FAA TRACON
Thu 10:33:10 PM 44.7594 -92.5897 119° Southeast 364 419 17,300 2,100 Climbing FAA TRACON
Thu 10:33:30 PM 44.7444 -92.5519 119° Southeast 360 414 17,700 1,500 Climbing FAA TRACON
Thu 10:33:50 PM 44.7286 -92.5133 120° Southeast 366 421 18,300 1,650 Climbing FAA TRACON
Thu 10:34:10 PM 44.7089 -92.4636 119° Southeast 375 432 18,800 1,350 Climbing FAA TRACON
Thu 10:34:30 PM 44.6936 -92.4239 118° Southeast 379 436 19,200 1,350 Climbing FAA TRACON
Thu 10:34:50 PM 44.6775 -92.3836 119° Southeast 384 442 19,700 1,950 Climbing FAA TRACON
Thu 10:35:10 PM 44.6569 -92.3331 120° Southeast 385 443 20,500 2,400 Climbing FAA TRACON
Thu 10:35:30 PM 44.6411 -92.2942 120° Southeast 380 437 21,300 2,250 Climbing FAA TRACON
Thu 10:35:50 PM 44.6278 -92.2536 115° Southeast 371 427 22,000 1,500 Climbing FAA TRACON
Thu 10:36:10 PM 44.6072 -92.2058 121° Southeast 370 426 22,300 900 Climbing FAA TRACON
Thu 10:36:30 PM 44.5922 -92.1664 118° Southeast 372 428 22,600 1,050 Climbing FAA TRACON
Thu 10:36:50 PM 44.5769 -92.1267 118° Southeast 376 433 23,000 1,200 Climbing FAA TRACON
Thu 10:37:10 PM 44.5600 -92.0878 121° Southeast 378 435 23,400 1,200 Climbing FAA TRACON
Thu 10:37:30 PM 44.5411 -92.0381 118° Southeast 377 434 23,800 923 Climbing FAA TRACON
Thu 10:37:49 PM 44.5247 -91.9986 120° Southeast 378 435 24,000 600 Climbing FAA TRACON
Thu 10:38:10 PM 44.5094 -91.9586 118° Southeast 379 436 24,200 585 Climbing FAA TRACON
Thu 10:38:30 PM 44.5003 -91.9394 124° Southeast 382 440 24,400 655 Climbing FAA TRACON
Thu 10:39:05 PM 44.4544 -91.8558 128° Southeast 384 442 24,800 375 Climbing Minneapolis Center
Thu 10:40:06 PM 44.3981 -91.7236 121° Southeast 394 453 25,000 98 Climbing Minneapolis Center
Thu 10:41:08 PM 44.3392 -91.5825 120° Southeast 414 476 25,000  Level Minneapolis Center
Thu 10:42:21 PM 44.2800 -91.4408 120° Southeast 422 486 25,000  Level Minneapolis Center
Thu 10:43:23 PM 44.1983 -91.2506 121° Southeast 424 488 25,000  Level Minneapolis Center
Thu 10:44:25 PM 44.1389 -91.1108 121° Southeast 423 487 25,000  Level Minneapolis Center
Thu 10:45:26 PM 44.0806 -90.9703 120° Southeast 422 486 25,000  Level Minneapolis Center
Thu 10:46:28 PM 44.0200 -90.8325 121° Southeast 420 483 25,000  Level Minneapolis Center
Thu 10:47:29 PM 43.9617 -90.6958 121° Southeast 416 479 25,000  Level Minneapolis Center
Thu 10:48:31 PM 43.8906 -90.5344 121° Southeast 411 473 25,000  Level Minneapolis Center
Thu 10:49:33 PM 43.8308 -90.3992 121° Southeast 411 473 25,000  Level Minneapolis Center
Thu 10:50:34 PM 43.7722 -90.2647 121° Southeast 409 471 25,000  Level Minneapolis Center
Thu 10:51:48 PM 43.7128 -90.1306 121° Southeast 410 472 25,000  Level Minneapolis Center
Thu 10:52:49 PM 43.6539 -89.9975 121° Southeast 407 468 25,000  Level Minneapolis Center
Thu 10:53:51 PM 43.5736 -89.8186 122° Southeast 412 474 25,000  Level Minneapolis Center
Thu 10:54:19 PM 43.5542 -89.7728 120° Southeast 411 473 25,000  Level Chicago Center
Thu 10:55:21 PM 43.5100 -89.6197 112° Southeast 432 497 25,000  Level Chicago Center
Thu 10:56:22 PM 43.4575 -89.4392 112° Southeast 434 499 25,000  Level Chicago Center
Thu 10:57:23 PM 43.4125 -89.2842 112° Southeast 437 503 25,000  Level Chicago Center
Thu 10:58:25 PM 43.3667 -89.1292 112° Southeast 439 505 25,000  Level Chicago Center
Thu 10:59:26 PM 43.3211 -88.9753 112° Southeast 436 502 25,000  Level Chicago Center
Thu 11:00:28 PM 43.2767 -88.8225 112° Southeast 435 501 25,000  Level Chicago Center
Thu 11:01:29 PM 43.2308 -88.6714 113° Southeast 435 501 25,000  Level Chicago Center
Thu 11:02:30 PM 43.1778 -88.4939 112° Southeast 436 502 25,000  Level Chicago Center
Thu 11:03:32 PM 43.1317 -88.3403 112° Southeast 440 506 25,000  Level Chicago Center
Thu 11:04:33 PM 43.0869 -88.1858 112° Southeast 440 506 25,000  Level Chicago Center
Thu 11:05:35 PM 43.0425 -88.0289 111° Southeast 443 510 25,000  Level Chicago Center
Thu 11:06:36 PM 42.9969 -87.8719 112° Southeast 444 511 25,000  Level Chicago Center
Thu 11:07:37 PM 42.9511 -87.7156 112° Southeast 445 512 25,000  Level Chicago Center
Thu 11:08:39 PM 42.9044 -87.5586 112° Southeast 445 512 25,000  Level Chicago Center
Thu 11:09:40 PM 42.8522 -87.3783 112° Southeast 438 504 25,000  Level Chicago Center
Thu 11:10:41 PM 42.8089 -87.2356 112° Southeast 414 476 25,000  Level Chicago Center
Thu 11:11:43 PM 42.7667 -87.0922 112° Southeast 410 472 25,000  Level Chicago Center
Thu 11:12:44 PM 42.7219 -86.9467 113° Southeast 418 481 25,000 -146 Level Chicago Center
Thu 11:13:46 PM 42.6781 -86.7997 112° Southeast 422 486 24,700 -585 Descending Chicago Center
Thu 11:14:47 PM 42.6319 -86.6475 112° Southeast 435 501 23,800 -984 Descending Chicago Center
Thu 11:15:48 PM 42.5839 -86.4922 113° Southeast 445 512 22,700 -1,707 Descending Chicago Center
Thu 11:16:50 PM 42.5378 -86.3428 113° Southeast 437 503 20,300 -3,122 Descending Chicago Center
Thu 11:17:51 PM 42.4906 -86.1756 111° Southeast 404 465 16,300 -3,415 Descending Chicago Center
Thu 11:18:53 PM 42.4561 -86.0439 109° East 380 437 13,300 -2,927 Descending Chicago Center
Thu 11:19:54 PM 42.4433 -85.9072 97° East 373 429 10,300 -2,656 Descending Chicago Center
Thu 11:20:55 PM 42.4353 -85.7892 95° East 330 380 7,900 -2,410 Descending Chicago Center
Thu 11:21:56 PM 42.4172 -85.6856 103° East 299 344 5,400 -2,459 Descending Chicago Center

Login

Don't have an account? Register now (free) for customized features, flight alerts, and more!